createdAt,value
2023-02-02T00:00:00.182Z,73.28
2023-02-02T00:03:02.816Z,72.87
2023-02-02T00:06:06.750Z,72.12
2023-02-02T00:09:10.733Z,70.36
2023-02-02T00:12:13.286Z,71.23
2023-02-02T00:15:14.654Z,71.99
2023-02-02T00:18:17.179Z,71.01
2023-02-02T00:21:19.125Z,71.18
2023-02-02T00:24:21.873Z,70.93
2023-02-02T00:27:23.164Z,70.60
2023-02-02T00:30:25.921Z,71.33
2023-02-02T00:33:27.257Z,71.23
2023-02-02T00:36:30.504Z,71.82
2023-02-02T00:42:52.657Z,70.72
2023-02-02T00:45:55.012Z,71.83
2023-02-02T00:48:56.313Z,72.43
2023-02-02T00:52:00.802Z,73.92
2023-02-02T00:55:03.424Z,73.59
2023-02-02T00:58:04.776Z,73.56
2023-02-02T01:01:15.726Z,73.18
2023-02-02T01:04:17.003Z,73.97
2023-02-02T01:07:20.263Z,74.65
2023-02-02T01:10:21.519Z,74.97
2023-02-02T01:13:24.064Z,76.60
2023-02-02T01:16:25.553Z,75.44
2023-02-02T01:19:28.193Z,75.91
2023-02-02T01:22:30.127Z,75.84
2023-02-02T01:25:34.237Z,76.05
2023-02-02T01:28:37.535Z,75.69
2023-02-02T01:31:41.128Z,75.26
2023-02-02T01:34:44.220Z,75.89
2023-02-02T01:37:46.167Z,76.89
2023-02-02T01:40:54.217Z,75.77
2023-02-02T01:43:58.788Z,76.66
2023-02-02T01:47:01.581Z,76.15
2023-02-02T01:50:05.543Z,76.97
2023-02-02T01:53:09.573Z,77.28
2023-02-02T01:56:16.445Z,76.96
2023-02-02T01:59:18.314Z,77.60
2023-02-02T02:02:21.485Z,76.64
2023-02-02T02:05:27.226Z,78.03
2023-02-02T02:08:34.826Z,77.54
2023-02-02T02:11:36.434Z,76.60
2023-02-02T02:14:57.278Z,75.94
2023-02-02T02:18:14.239Z,76.76
2023-02-02T02:21:58.059Z,75.32
2023-02-02T02:25:49.018Z,75.31
2023-02-02T02:29:36.364Z,74.92
2023-02-02T02:32:46.383Z,75.28
2023-02-02T02:35:58.685Z,74.84
2023-02-02T02:39:10.721Z,73.08
2023-02-02T02:42:16.755Z,74.01
2023-02-02T02:45:20.604Z,73.47
2023-02-02T02:51:46.496Z,73.73
2023-02-02T02:54:52.785Z,74.80
2023-02-02T02:58:06.459Z,73.17
2023-02-02T03:01:14.381Z,73.53
2023-02-02T03:04:23.213Z,72.97
2023-02-02T03:07:29.161Z,72.37
2023-02-02T03:10:32.563Z,72.28
2023-02-02T03:13:34.420Z,72.50
2023-02-02T03:16:37.759Z,73.03
2023-02-02T03:19:39.647Z,72.55
2023-02-02T03:22:42.171Z,72.93
2023-02-02T03:25:45.229Z,72.57
2023-02-02T03:28:46.668Z,71.99
2023-02-02T03:31:49.691Z,71.88
2023-02-02T03:34:51.633Z,73.22
2023-02-02T03:37:54.245Z,72.70
2023-02-02T03:40:55.519Z,73.07
2023-02-02T03:43:58.167Z,73.44
2023-02-02T03:46:59.565Z,74.00
2023-02-02T03:50:02.835Z,73.42
2023-02-02T03:53:04.963Z,73.95
2023-02-02T03:56:08.234Z,72.34
2023-02-02T03:59:09.503Z,73.16
2023-02-02T04:02:12.149Z,73.25
2023-02-02T04:05:15.703Z,72.32
2023-02-02T04:08:16.946Z,71.51
2023-02-02T04:11:19.860Z,72.83
2023-02-02T04:14:21.124Z,73.07
2023-02-02T04:17:23.697Z,72.10
2023-02-02T04:23:47.721Z,71.69
2023-02-02T04:26:49.060Z,71.14
2023-02-02T04:29:50.722Z,70.89
2023-02-02T04:32:52.060Z,71.65
2023-02-02T04:35:54.549Z,70.81
2023-02-02T04:38:55.891Z,70.63
2023-02-02T04:41:58.436Z,70.00
2023-02-02T04:45:00.623Z,70.52
2023-02-02T04:48:03.008Z,70.55
2023-02-02T04:51:09.067Z,70.43
2023-02-02T04:54:10.318Z,70.20
2023-02-02T04:57:11.634Z,71.57
2023-02-02T05:00:15.416Z,72.03
2023-02-02T05:03:17.967Z,72.04
2023-02-02T05:06:19.895Z,72.32
2023-02-02T05:09:22.583Z,71.78
2023-02-02T05:12:23.939Z,72.47
2023-02-02T05:15:26.315Z,72.91
2023-02-02T05:18:28.148Z,72.41
2023-02-02T05:21:30.113Z,72.78
2023-02-02T05:24:31.391Z,71.78
2023-02-02T05:27:34.125Z,72.67
2023-02-02T05:33:56.904Z,72.28
2023-02-02T05:36:58.883Z,71.29
2023-02-02T05:40:00.177Z,71.03
2023-02-02T05:43:02.728Z,71.82
2023-02-02T05:46:04.629Z,72.66
2023-02-02T05:49:05.950Z,71.50
2023-02-02T05:52:11.852Z,72.23
2023-02-02T05:55:13.170Z,70.12
2023-02-02T05:58:15.713Z,70.64
2023-02-02T06:01:18.741Z,70.94
2023-02-02T06:04:21.276Z,71.05
2023-02-02T06:07:24.481Z,71.60
2023-02-02T06:10:25.829Z,70.21
2023-02-02T06:13:28.367Z,70.62
2023-02-02T06:16:29.674Z,71.08
2023-02-02T06:19:32.735Z,71.82
2023-02-02T06:22:34.932Z,71.22
2023-02-02T06:25:37.545Z,71.02
2023-02-02T06:28:38.885Z,71.47
2023-02-02T06:31:41.494Z,70.70
2023-02-02T06:34:44.083Z,71.32
2023-02-02T06:37:46.072Z,70.39
2023-02-02T06:40:48.571Z,69.76
2023-02-02T06:43:49.987Z,70.37
2023-02-02T06:46:52.477Z,70.34
2023-02-02T06:49:53.811Z,70.36
2023-02-02T06:56:18.705Z,70.12
2023-02-02T06:59:20.181Z,69.34
2023-02-02T07:02:23.885Z,68.01
2023-02-02T07:05:30.112Z,67.34
2023-02-02T07:08:33.801Z,67.55
2023-02-02T07:11:37.395Z,66.91
2023-02-02T07:14:42.105Z,67.95
2023-02-02T07:17:43.365Z,67.92
2023-02-02T07:20:44.668Z,66.64
2023-02-02T07:23:47.078Z,66.78
2023-02-02T07:26:48.443Z,67.35
2023-02-02T07:29:51.023Z,67.60
2023-02-02T07:32:52.277Z,67.45
2023-02-02T07:35:54.832Z,68.68
2023-02-02T07:38:57.152Z,68.55
2023-02-02T07:42:01.420Z,67.70
2023-02-02T07:45:27.152Z,67.78
2023-02-02T07:48:27.128Z,67.66
2023-02-02T07:51:28.421Z,68.17
2023-02-02T07:54:31.391Z,69.20
2023-02-02T07:57:32.740Z,69.92
2023-02-02T08:00:34.033Z,70.60
2023-02-02T08:03:40.022Z,70.10
2023-02-02T08:06:41.428Z,69.75
2023-02-02T08:09:48.590Z,69.87
2023-02-02T08:12:49.899Z,70.27
2023-02-02T08:15:52.423Z,69.76
2023-02-02T08:18:55.567Z,70.43
2023-02-02T08:21:56.865Z,70.61
2023-02-02T08:24:58.786Z,69.03
2023-02-02T08:28:02.234Z,69.16
2023-02-02T08:31:06.296Z,69.40
2023-02-02T08:34:07.631Z,68.53
2023-02-02T08:37:08.897Z,68.93
2023-02-02T08:40:13.431Z,68.81
2023-02-02T08:43:16.577Z,68.70
2023-02-02T08:49:41.666Z,68.63
2023-02-02T08:52:44.558Z,68.75
2023-02-02T08:55:46.618Z,68.34
2023-02-02T08:58:51.158Z,67.71
2023-02-02T09:01:53.488Z,67.17
2023-02-02T09:04:54.811Z,65.74
2023-02-02T09:07:56.417Z,67.20
2023-02-02T09:11:03.195Z,66.36
2023-02-02T09:14:06.922Z,66.66
2023-02-02T09:17:08.301Z,66.71
2023-02-02T09:20:11.859Z,66.84
2023-02-02T09:23:13.150Z,66.75
2023-02-02T09:26:18.469Z,67.25
2023-02-02T09:29:19.931Z,67.06
2023-02-02T09:32:22.285Z,67.29
2023-02-02T09:35:25.218Z,66.69
2023-02-02T09:38:26.723Z,66.10
2023-02-02T09:42:08.027Z,66.29
2023-02-02T09:45:18.329Z,65.67
2023-02-02T09:48:32.688Z,67.21
2023-02-02T09:51:41.002Z,65.88
2023-02-02T09:54:44.478Z,64.70
2023-02-02T09:57:51.917Z,65.17
2023-02-02T10:01:01.088Z,64.13
2023-02-02T10:04:09.519Z,63.83
2023-02-02T10:07:18.259Z,65.25
2023-02-02T10:10:25.185Z,64.99
2023-02-02T10:13:34.397Z,61.41
2023-02-02T10:16:38.653Z,61.92
2023-02-02T10:19:42.071Z,61.63
2023-02-02T10:22:45.519Z,60.05
2023-02-02T10:25:55.876Z,59.37
2023-02-02T10:29:09.279Z,56.28
2023-02-02T10:32:21.863Z,54.96
2023-02-02T10:35:37.856Z,52.04
2023-02-02T10:38:47.416Z,53.55
2023-02-02T10:42:03.266Z,54.84
2023-02-02T10:45:14.107Z,54.11
2023-02-02T10:48:19.444Z,54.42
2023-02-02T10:51:27.140Z,55.46
2023-02-02T10:54:56.342Z,54.68
2023-02-02T10:58:08.238Z,55.31
2023-02-02T11:01:11.967Z,55.16
2023-02-02T11:04:32.720Z,54.23
2023-02-02T11:07:35.728Z,54.38
2023-02-02T11:10:38.112Z,54.37
2023-02-02T11:13:45.010Z,54.93
2023-02-02T11:17:02.742Z,55.46
2023-02-02T11:20:24.205Z,55.66
2023-02-02T11:23:27.712Z,56.74
2023-02-02T11:26:42.822Z,56.34
2023-02-02T11:29:47.781Z,56.02
2023-02-02T11:32:51.138Z,55.06
2023-02-02T11:35:54.980Z,55.86
2023-02-02T11:39:15.127Z,55.06
2023-02-02T11:42:19.707Z,56.21
2023-02-02T11:45:30.081Z,56.77
2023-02-02T11:48:36.637Z,57.64
2023-02-02T11:51:39.076Z,58.25
2023-02-02T11:54:46.822Z,58.91
2023-02-02T11:58:19.756Z,58.49
2023-02-02T12:01:26.454Z,59.60
2023-02-02T12:04:32.177Z,63.31
2023-02-02T12:07:35.492Z,65.45
2023-02-02T12:10:44.496Z,66.16
2023-02-02T12:13:58.720Z,66.80
2023-02-02T12:17:09.623Z,67.11
2023-02-02T12:20:38.774Z,68.04
2023-02-02T12:23:53.783Z,65.54
2023-02-02T12:27:05.186Z,65.18
2023-02-02T12:30:22.524Z,66.08
2023-02-02T12:33:34.648Z,63.42
2023-02-02T12:36:49.039Z,62.82
2023-02-02T12:40:03.358Z,64.04
2023-02-02T12:43:22.468Z,62.34
2023-02-02T12:46:45.298Z,62.56
2023-02-02T12:50:02.538Z,62.22
2023-02-02T12:53:25.881Z,60.69
2023-02-02T12:56:37.119Z,62.26
2023-02-02T13:00:03.257Z,62.07
2023-02-02T13:03:18.752Z,60.87
2023-02-02T13:06:51.474Z,60.41
2023-02-02T13:10:12.086Z,58.80
2023-02-02T13:13:19.244Z,59.33
2023-02-02T13:16:21.821Z,58.73
2023-02-02T13:19:31.231Z,59.29
2023-02-02T13:22:38.205Z,60.15
2023-02-02T13:25:47.139Z,59.43
2023-02-02T13:28:54.591Z,58.90
2023-02-02T13:32:02.007Z,58.82
2023-02-02T13:35:10.752Z,59.71
2023-02-02T13:38:20.355Z,58.83
2023-02-02T13:41:22.987Z,59.29
2023-02-02T13:44:29.736Z,59.05
2023-02-02T13:47:41.432Z,59.28
2023-02-02T13:50:56.249Z,58.76
2023-02-02T13:54:21.998Z,58.04
2023-02-02T13:57:56.198Z,59.06
2023-02-02T14:01:03.145Z,57.77
2023-02-02T14:04:06.048Z,57.98
2023-02-02T14:07:07.627Z,57.43
2023-02-02T14:10:22.959Z,57.56
2023-02-02T14:13:50.899Z,56.78
2023-02-02T14:16:56.022Z,57.71
2023-02-02T14:19:58.651Z,57.67
2023-02-02T14:23:00.980Z,57.91
2023-02-02T14:26:08.225Z,57.09
2023-02-02T14:29:39.362Z,56.32
2023-02-02T14:32:42.174Z,56.39
2023-02-02T14:36:01.926Z,56.91
2023-02-02T14:39:21.240Z,57.22
2023-02-02T14:43:07.612Z,57.14
2023-02-02T14:46:38.826Z,57.62
2023-02-02T14:49:40.386Z,57.49
2023-02-02T14:52:41.933Z,57.64
2023-02-02T14:55:54.214Z,58.04
2023-02-02T14:59:00.476Z,58.51
2023-02-02T15:02:19.585Z,57.90
2023-02-02T15:05:44.007Z,58.10
2023-02-02T15:08:45.811Z,57.82
2023-02-02T15:12:21.060Z,58.61
2023-02-02T15:15:29.890Z,58.04
2023-02-02T15:18:40.848Z,58.40
2023-02-02T15:21:48.491Z,57.73
2023-02-02T15:24:51.142Z,58.44
2023-02-02T15:28:00.219Z,58.80
2023-02-02T15:31:07.085Z,59.27
2023-02-02T15:34:17.508Z,60.00
2023-02-02T15:37:22.405Z,59.61
2023-02-02T15:40:26.353Z,59.44
2023-02-02T15:43:29.230Z,60.10
2023-02-02T15:46:36.018Z,60.32
2023-02-02T15:49:39.246Z,60.38
2023-02-02T15:52:46.722Z,60.86
2023-02-02T15:55:49.573Z,60.94
2023-02-02T15:58:52.950Z,60.77
2023-02-02T16:02:17.962Z,61.67
2023-02-02T16:05:42.352Z,61.02
2023-02-02T16:08:44.255Z,61.92
2023-02-02T16:11:47.660Z,61.90
2023-02-02T16:14:52.627Z,61.71
2023-02-02T16:18:01.170Z,62.29
2023-02-02T16:21:15.385Z,61.78
2023-02-02T16:24:21.038Z,61.89
2023-02-02T16:27:26.073Z,61.96
2023-02-02T16:30:29.852Z,62.06
2023-02-02T16:33:39.639Z,62.41
2023-02-02T16:40:18.922Z,63.43
2023-02-02T16:43:26.462Z,63.43
2023-02-02T16:46:45.043Z,63.85
2023-02-02T16:49:46.360Z,64.66
2023-02-02T16:52:53.257Z,64.91
2023-02-02T16:55:57.104Z,64.86
2023-02-02T17:02:29.462Z,65.36
2023-02-02T17:05:34.649Z,65.91
2023-02-02T17:08:39.747Z,66.29
2023-02-02T17:11:55.990Z,66.72
2023-02-02T17:15:00.790Z,66.73
2023-02-02T17:18:04.852Z,66.94
2023-02-02T17:21:07.409Z,66.86
2023-02-02T17:24:11.609Z,67.34
2023-02-02T17:27:16.744Z,66.93
2023-02-02T17:30:19.240Z,66.79
2023-02-02T17:33:21.862Z,67.24
2023-02-02T17:36:24.400Z,67.34
2023-02-02T17:39:26.341Z,68.24
2023-02-02T17:42:29.178Z,67.80
2023-02-02T17:45:34.096Z,67.96
2023-02-02T17:48:42.957Z,68.15
2023-02-02T17:51:45.839Z,68.90
2023-02-02T17:54:47.790Z,69.17
2023-02-02T17:57:51.118Z,68.67
2023-02-02T18:00:55.508Z,68.97
2023-02-02T18:03:57.054Z,69.65
2023-02-02T18:06:59.661Z,69.44
2023-02-02T18:10:01.596Z,69.35
2023-02-02T18:13:03.069Z,70.03
2023-02-02T18:16:06.342Z,69.65
2023-02-02T18:19:08.878Z,69.68
2023-02-02T18:22:10.480Z,70.00
2023-02-02T18:25:12.515Z,69.97
2023-02-02T18:28:17.605Z,69.95
2023-02-02T18:31:22.335Z,70.21
2023-02-02T18:34:23.822Z,70.34
2023-02-02T18:37:25.311Z,70.10
2023-02-02T18:40:28.480Z,69.39
2023-02-02T18:43:31.078Z,69.44
2023-02-02T18:46:33.260Z,69.77
2023-02-02T18:49:35.839Z,69.76
2023-02-02T18:52:37.138Z,69.46
2023-02-02T18:55:39.101Z,69.99
2023-02-02T18:58:40.620Z,70.89
2023-02-02T19:01:42.020Z,71.09
2023-02-02T19:08:24.719Z,70.73
2023-02-02T19:11:34.115Z,70.88
2023-02-02T19:14:38.052Z,71.16
2023-02-02T19:17:39.757Z,71.23
2023-02-02T19:20:43.596Z,71.67
2023-02-02T19:23:45.418Z,71.31
2023-02-02T19:26:50.641Z,70.91
2023-02-02T19:29:55.613Z,71.29
2023-02-02T19:32:57.775Z,71.23
2023-02-02T19:35:59.109Z,71.10
2023-02-02T19:39:10.465Z,71.05
2023-02-02T19:42:14.074Z,71.39
2023-02-02T19:45:25.313Z,71.42
2023-02-02T19:48:32.186Z,71.84
2023-02-02T19:51:41.427Z,71.42
2023-02-02T19:54:45.562Z,71.65
2023-02-02T19:57:47.492Z,71.72
2023-02-02T20:00:52.065Z,71.42
2023-02-02T20:03:54.471Z,71.22
2023-02-02T20:06:59.631Z,71.51
2023-02-02T20:10:14.788Z,71.37
2023-02-02T20:13:21.242Z,71.79
2023-02-02T20:16:25.344Z,71.53
2023-02-02T20:19:30.595Z,71.67
2023-02-02T20:22:33.025Z,71.23
2023-02-02T20:25:36.727Z,71.60
2023-02-02T20:28:42.625Z,71.86
2023-02-02T20:31:45.128Z,71.74
2023-02-02T20:34:46.497Z,72.11
2023-02-02T20:37:48.351Z,72.05
2023-02-02T20:40:52.631Z,72.11
2023-02-02T20:43:54.565Z,71.46
2023-02-02T20:50:20.054Z,72.34
2023-02-02T20:53:22.874Z,72.04
2023-02-02T20:56:24.815Z,72.03
2023-02-02T20:59:28.010Z,71.91
2023-02-02T21:02:29.322Z,72.36
2023-02-02T21:05:31.920Z,72.51
2023-02-02T21:08:33.191Z,71.85
2023-02-02T21:11:35.891Z,72.40
2023-02-02T21:14:38.157Z,72.06
2023-02-02T21:17:41.291Z,72.31
2023-02-02T21:20:43.842Z,72.27
2023-02-02T21:23:47.801Z,72.42
2023-02-02T21:26:52.135Z,72.34
2023-02-02T21:29:55.724Z,72.10
2023-02-02T21:32:57.731Z,72.35
2023-02-02T21:36:03.626Z,72.50
2023-02-02T21:39:27.639Z,72.42
2023-02-02T21:42:35.013Z,72.22
2023-02-02T21:45:39.302Z,72.38
2023-02-02T21:48:41.291Z,72.76
2023-02-02T21:51:43.803Z,72.48
2023-02-02T21:54:46.998Z,72.50
2023-02-02T21:57:48.338Z,72.22
2023-02-02T22:00:51.920Z,72.12
2023-02-02T22:03:53.540Z,72.16
2023-02-02T22:06:59.829Z,72.63
2023-02-02T22:10:02.408Z,72.35
2023-02-02T22:13:15.324Z,72.41
2023-02-02T22:16:21.154Z,72.19
2023-02-02T22:19:32.542Z,72.23
2023-02-02T22:22:36.045Z,72.84
2023-02-02T22:25:41.200Z,72.78
2023-02-02T22:28:43.704Z,73.10
2023-02-02T22:31:46.921Z,72.97
2023-02-02T22:34:48.193Z,73.01
2023-02-02T22:37:51.893Z,73.11
2023-02-02T22:40:53.746Z,73.22
2023-02-02T22:43:56.362Z,72.88
2023-02-02T22:46:59.610Z,72.97
2023-02-02T22:50:00.867Z,73.44
2023-02-02T22:53:04.530Z,73.42
2023-02-02T22:56:06.374Z,73.18
2023-02-02T22:59:27.161Z,73.05
2023-02-02T23:02:29.140Z,73.20
2023-02-02T23:05:30.496Z,73.51
2023-02-02T23:08:33.166Z,73.84
2023-02-02T23:11:34.459Z,73.93
2023-02-02T23:14:37.057Z,74.10
2023-02-02T23:17:40.328Z,73.98
2023-02-02T23:20:41.650Z,73.77
2023-02-02T23:23:44.421Z,73.99
2023-02-02T23:26:45.704Z,73.71
2023-02-02T23:29:48.254Z,74.16
2023-02-02T23:32:50.377Z,73.92
2023-02-02T23:35:52.936Z,74.40
2023-02-02T23:38:55.499Z,74.73
2023-02-02T23:41:56.834Z,74.54
2023-02-02T23:44:59.372Z,74.70
2023-02-02T23:48:01.515Z,74.05
2023-02-02T23:51:04.230Z,74.35
2023-02-02T23:54:06.057Z,75.06
2023-02-02T23:57:08.664Z,74.30
